createdAt,value
2018-08-10T00:00:08.490Z,19.80
2018-08-10T00:02:36.341Z,19.80
2018-08-10T00:05:04.385Z,19.90
2018-08-10T00:07:31.858Z,20.00
2018-08-10T00:09:59.293Z,20.10
2018-08-10T00:12:26.722Z,20.10
2018-08-10T00:14:54.249Z,20.20
2018-08-10T00:17:21.694Z,20.30
2018-08-10T00:19:49.116Z,20.30
2018-08-10T00:22:16.512Z,20.20
2018-08-10T00:24:43.997Z,19.90
2018-08-10T00:27:12.701Z,19.50
2018-08-10T00:29:40.116Z,19.10
2018-08-10T00:32:07.793Z,18.70
2018-08-10T00:34:35.231Z,18.50
2018-08-10T00:37:02.669Z,18.20
2018-08-10T00:39:30.115Z,18.00
2018-08-10T00:41:57.509Z,17.90
2018-08-10T00:44:24.944Z,17.80
2018-08-10T00:46:52.389Z,17.70
2018-08-10T00:49:19.853Z,17.70
2018-08-10T00:51:47.286Z,17.80
2018-08-10T00:54:14.693Z,17.80
2018-08-10T00:56:42.109Z,17.80
2018-08-10T00:59:09.582Z,17.90
2018-08-10T01:01:37.025Z,17.80
2018-08-10T01:04:04.535Z,17.80
2018-08-10T01:06:31.916Z,17.80
2018-08-10T01:08:59.329Z,17.80
2018-08-10T01:11:26.773Z,17.80
2018-08-10T01:13:54.277Z,17.80
2018-08-10T01:16:21.686Z,17.70
2018-08-10T01:18:49.098Z,17.70
2018-08-10T01:21:17.444Z,17.60
2018-08-10T01:23:44.848Z,17.50
2018-08-10T01:26:12.265Z,17.40
2018-08-10T01:28:39.719Z,17.40
2018-08-10T01:31:07.112Z,17.40
2018-08-10T01:33:34.568Z,17.40
2018-08-10T01:36:02.018Z,17.40
2018-08-10T01:38:29.470Z,17.30
2018-08-10T01:40:56.974Z,17.30
2018-08-10T01:43:24.415Z,17.20
2018-08-10T01:45:51.870Z,17.20
2018-08-10T01:48:19.277Z,17.20
2018-08-10T01:50:46.700Z,17.20
2018-08-10T01:53:14.097Z,17.20
2018-08-10T01:55:41.464Z,17.20
2018-08-10T01:58:09.149Z,17.20
2018-08-10T02:00:36.574Z,17.30
2018-08-10T02:03:04.009Z,17.30
2018-08-10T02:05:31.429Z,17.20
2018-08-10T02:07:58.816Z,17.20
2018-08-10T02:10:26.241Z,17.20
2018-08-10T02:12:55.358Z,17.10
2018-08-10T02:15:22.808Z,17.10
2018-08-10T02:17:50.245Z,17.00
2018-08-10T02:20:19.168Z,17.00
2018-08-10T02:22:46.864Z,17.10
2018-08-10T02:25:15.571Z,17.20
2018-08-10T02:27:44.032Z,17.20
2018-08-10T02:30:12.864Z,17.10
2018-08-10T02:32:41.206Z,17.00
2018-08-10T02:35:08.645Z,17.00
2018-08-10T02:37:36.848Z,16.90
2018-08-10T02:40:06.071Z,16.90
2018-08-10T02:42:33.506Z,17.00
2018-08-10T02:45:00.891Z,17.00
2018-08-10T02:47:28.381Z,17.00
2018-08-10T02:49:56.064Z,17.10
2018-08-10T02:52:24.798Z,17.10
2018-08-10T02:54:52.766Z,17.10
2018-08-10T02:57:20.172Z,17.10
2018-08-10T02:59:47.765Z,17.10
2018-08-10T03:02:15.858Z,17.20
2018-08-10T03:04:43.276Z,17.20
2018-08-10T03:07:10.678Z,17.10
2018-08-10T03:09:38.132Z,17.10
2018-08-10T03:12:05.936Z,17.10
2018-08-10T03:14:33.328Z,17.10
2018-08-10T03:17:00.729Z,17.10
2018-08-10T03:19:28.155Z,17.10
2018-08-10T03:21:55.645Z,17.00
2018-08-10T03:24:23.029Z,17.00
2018-08-10T03:26:50.421Z,17.00
2018-08-10T03:29:18.277Z,17.00
2018-08-10T03:31:45.861Z,16.90
2018-08-10T03:34:13.509Z,16.90
2018-08-10T03:36:41.044Z,17.00
2018-08-10T03:39:10.598Z,17.00
2018-08-10T03:41:38.021Z,17.10
2018-08-10T03:44:05.871Z,17.10
2018-08-10T03:46:33.338Z,17.20
2018-08-10T03:49:00.746Z,17.30
2018-08-10T03:51:28.183Z,17.30
2018-08-10T03:53:55.600Z,17.30
2018-08-10T03:56:23.057Z,17.30
2018-08-10T03:58:50.460Z,17.30
2018-08-10T04:01:17.937Z,17.30
2018-08-10T04:03:45.336Z,17.40
2018-08-10T04:06:12.888Z,17.40
2018-08-10T04:08:40.316Z,17.50
2018-08-10T04:11:07.789Z,17.50
2018-08-10T04:13:35.203Z,17.60
2018-08-10T04:16:02.653Z,17.60
2018-08-10T04:18:30.049Z,17.60
2018-08-10T04:20:57.480Z,17.70
2018-08-10T04:23:24.939Z,17.70
2018-08-10T04:25:52.368Z,17.80
2018-08-10T04:28:19.806Z,17.80
2018-08-10T04:30:47.216Z,17.80
2018-08-10T04:33:14.647Z,17.80
2018-08-10T04:35:42.054Z,17.90
2018-08-10T04:38:09.472Z,17.90
2018-08-10T04:40:36.861Z,17.90
2018-08-10T04:43:04.338Z,18.00
2018-08-10T04:45:31.919Z,18.10
2018-08-10T04:48:01.742Z,18.20
2018-08-10T04:50:29.800Z,18.30
2018-08-10T04:52:57.229Z,18.30
2018-08-10T04:55:24.673Z,18.40
2018-08-10T04:57:52.082Z,18.50
2018-08-10T05:00:19.533Z,18.50
2018-08-10T05:02:46.956Z,18.60
2018-08-10T05:05:14.348Z,18.80
2018-08-10T05:07:42.105Z,18.80
2018-08-10T05:10:09.899Z,18.90
2018-08-10T05:12:38.271Z,19.20
2018-08-10T05:15:07.424Z,19.30
2018-08-10T05:17:35.249Z,19.40
2018-08-10T05:20:02.737Z,19.50
2018-08-10T05:22:30.161Z,19.60
2018-08-10T05:24:58.225Z,19.60
2018-08-10T05:27:25.665Z,19.60
2018-08-10T05:29:53.080Z,19.70
2018-08-10T05:32:20.481Z,19.80
2018-08-10T05:34:47.965Z,19.90
2018-08-10T05:37:15.353Z,19.90
2018-08-10T05:39:42.769Z,19.80
2018-08-10T05:42:10.193Z,19.70
2018-08-10T05:44:37.592Z,19.90
2018-08-10T05:47:05.025Z,20.10
2018-08-10T05:49:32.405Z,20.20
2018-08-10T05:51:59.790Z,20.20
2018-08-10T05:54:27.201Z,20.30
2018-08-10T05:56:54.589Z,20.40
2018-08-10T05:59:22.028Z,20.40
2018-08-10T06:01:49.454Z,20.20
2018-08-10T06:04:16.861Z,20.10
2018-08-10T06:06:44.260Z,20.30
2018-08-10T06:09:13.344Z,20.50
2018-08-10T06:11:41.562Z,20.70
2018-08-10T06:14:08.960Z,20.90
2018-08-10T06:16:36.366Z,20.80
2018-08-10T06:19:03.813Z,20.50
2018-08-10T06:21:31.263Z,20.40
2018-08-10T06:23:58.708Z,20.30
2018-08-10T06:26:26.110Z,20.10
2018-08-10T06:28:53.758Z,20.00
2018-08-10T06:31:21.127Z,19.80
2018-08-10T06:33:48.561Z,19.60
2018-08-10T06:36:15.953Z,19.60
2018-08-10T06:38:43.359Z,20.20
2018-08-10T06:41:10.903Z,20.60
2018-08-10T06:43:38.265Z,21.10
2018-08-10T06:46:05.660Z,21.30
2018-08-10T06:48:33.167Z,21.20
2018-08-10T06:51:00.583Z,21.10
2018-08-10T06:53:27.986Z,21.20
2018-08-10T06:55:55.461Z,21.40
2018-08-10T06:58:22.800Z,21.20
2018-08-10T07:00:50.224Z,21.40
2018-08-10T07:03:17.661Z,21.20
2018-08-10T07:05:45.111Z,21.20
2018-08-10T07:08:12.509Z,20.90
2018-08-10T07:10:39.914Z,20.60
2018-08-10T07:13:07.341Z,20.60
2018-08-10T07:15:34.757Z,20.60
2018-08-10T07:18:02.144Z,20.60
2018-08-10T07:20:29.552Z,20.70
2018-08-10T07:22:56.933Z,20.70
2018-08-10T07:25:24.354Z,20.80
2018-08-10T07:27:51.733Z,20.80
2018-08-10T07:30:19.163Z,20.70
2018-08-10T07:32:46.578Z,20.70
2018-08-10T07:35:13.979Z,20.80
2018-08-10T07:37:41.394Z,21.10
2018-08-10T07:40:08.809Z,21.30
2018-08-10T07:42:36.246Z,21.40
2018-08-10T07:45:04.389Z,21.50
2018-08-10T07:47:31.810Z,21.70
2018-08-10T07:49:59.217Z,21.80
2018-08-10T07:52:26.598Z,21.70
2018-08-10T07:54:54.009Z,21.30
2018-08-10T07:57:21.423Z,21.30
2018-08-10T07:59:48.844Z,21.20
2018-08-10T08:02:16.273Z,21.40
2018-08-10T08:04:43.680Z,21.30
2018-08-10T08:07:11.114Z,21.30
2018-08-10T08:09:38.548Z,21.50
2018-08-10T08:12:05.993Z,21.50
2018-08-10T08:14:33.389Z,21.50
2018-08-10T08:17:00.814Z,21.60
2018-08-10T08:19:28.301Z,21.60
2018-08-10T08:22:09.801Z,21.70
2018-08-10T08:24:37.981Z,21.90
2018-08-10T08:27:05.667Z,22.10
2018-08-10T08:29:33.301Z,22.10
2018-08-10T08:32:01.079Z,22.00
2018-08-10T08:34:28.496Z,22.00
2018-08-10T08:36:55.933Z,22.00
2018-08-10T08:40:27.227Z,21.80
2018-08-10T08:42:54.684Z,21.80
2018-08-10T08:46:09.289Z,21.80
2018-08-10T08:48:38.493Z,21.80
2018-08-10T08:51:08.525Z,21.80
2018-08-10T08:53:35.978Z,21.50
2018-08-10T08:56:06.913Z,20.90
2018-08-10T08:58:34.992Z,20.50
2018-08-10T09:01:02.651Z,20.30
2018-08-10T09:03:41.609Z,20.10
2018-08-10T09:06:09.244Z,20.50
2018-08-10T09:08:36.709Z,20.90
2018-08-10T09:11:05.932Z,21.00
2018-08-10T09:15:41.632Z,21.30
2018-08-10T09:18:09.047Z,21.50
2018-08-10T09:20:36.502Z,21.80
2018-08-10T09:23:03.968Z,21.90
2018-08-10T09:25:31.349Z,21.70
2018-08-10T09:27:58.748Z,21.40
2018-08-10T09:30:26.188Z,21.00
2018-08-10T09:32:53.602Z,21.00
2018-08-10T09:35:21.053Z,21.00
2018-08-10T09:37:48.511Z,21.10
2018-08-10T09:40:17.237Z,21.30
2018-08-10T09:42:45.050Z,21.70
2018-08-10T09:45:13.425Z,21.60
2018-08-10T09:47:41.596Z,21.60
2018-08-10T09:50:10.493Z,21.40
2018-08-10T09:52:37.929Z,21.20
2018-08-10T09:55:24.465Z,21.40
2018-08-10T09:57:55.149Z,21.50
2018-08-10T10:00:28.417Z,21.30
2018-08-10T10:03:01.683Z,21.20
2018-08-10T10:05:29.120Z,21.30
2018-08-10T10:07:56.598Z,21.60
2018-08-10T10:10:24.554Z,21.70
2018-08-10T10:12:52.262Z,22.00
2018-08-10T10:15:19.860Z,22.00
2018-08-10T10:17:47.438Z,22.00
2018-08-10T10:20:15.210Z,22.10
2018-08-10T10:22:43.123Z,22.20
2018-08-10T10:25:10.564Z,22.30
2018-08-10T10:27:37.993Z,22.40
2018-08-10T10:30:06.404Z,22.20
2018-08-10T10:32:33.900Z,21.90
2018-08-10T10:35:01.602Z,21.90
2018-08-10T10:37:29.056Z,22.00
2018-08-10T10:39:56.480Z,21.60
2018-08-10T10:42:23.902Z,21.50
2018-08-10T10:44:51.325Z,21.80
2018-08-10T10:47:18.760Z,22.10
2018-08-10T10:49:46.388Z,22.20
2018-08-10T10:52:13.853Z,22.10
2018-08-10T10:54:41.263Z,22.20
2018-08-10T10:57:08.681Z,21.80
2018-08-10T10:59:36.126Z,21.20
2018-08-10T11:02:03.548Z,21.30
2018-08-10T11:04:30.964Z,21.50
2018-08-10T11:06:58.374Z,21.60
2018-08-10T11:09:25.796Z,21.80
2018-08-10T11:11:53.229Z,21.60
2018-08-10T11:14:20.654Z,21.60
2018-08-10T11:16:48.056Z,22.20
2018-08-10T11:19:15.469Z,22.90
2018-08-10T11:21:42.886Z,23.40
2018-08-10T11:24:10.293Z,23.60
2018-08-10T11:26:37.776Z,23.80
2018-08-10T11:29:05.241Z,23.90
2018-08-10T11:31:32.648Z,23.80
2018-08-10T11:34:00.058Z,23.40
2018-08-10T11:36:27.494Z,23.10
2018-08-10T11:38:54.874Z,22.20
2018-08-10T11:41:22.336Z,21.80
2018-08-10T11:43:49.753Z,21.80
2018-08-10T11:46:17.806Z,22.10
2018-08-10T11:48:45.666Z,21.80
2018-08-10T11:51:13.226Z,22.20
2018-08-10T11:53:40.800Z,22.50
2018-08-10T11:56:08.209Z,22.60
2018-08-10T11:58:35.646Z,22.30
2018-08-10T12:01:03.121Z,22.00
2018-08-10T12:03:30.564Z,21.60
2018-08-10T12:05:58.047Z,21.50
2018-08-10T12:08:25.418Z,21.40
2018-08-10T12:10:52.845Z,21.30
2018-08-10T12:13:20.255Z,21.40
2018-08-10T12:15:47.678Z,21.60
2018-08-10T12:18:15.080Z,21.80
2018-08-10T12:20:42.680Z,21.70
2018-08-10T12:23:10.082Z,21.90
2018-08-10T12:25:37.466Z,22.10
2018-08-10T12:28:04.921Z,21.50
2018-08-10T12:30:32.337Z,21.50
2018-08-10T12:32:59.704Z,21.60
2018-08-10T12:35:27.137Z,22.00
2018-08-10T12:37:54.544Z,21.90
2018-08-10T12:40:21.951Z,21.80
2018-08-10T12:42:49.369Z,21.50
2018-08-10T12:45:16.773Z,21.60
2018-08-10T12:47:44.318Z,21.60
2018-08-10T12:50:11.690Z,21.50
2018-08-10T12:52:39.341Z,20.80
2018-08-10T12:55:06.925Z,20.50
2018-08-10T12:57:34.358Z,20.20
2018-08-10T13:00:01.835Z,20.40
2018-08-10T13:02:29.312Z,20.50
2018-08-10T13:04:56.721Z,20.70
2018-08-10T13:07:24.173Z,21.00
2018-08-10T13:09:51.566Z,21.00
2018-08-10T13:12:19.002Z,20.80
2018-08-10T13:14:46.519Z,20.40
2018-08-10T13:17:14.284Z,20.70
2018-08-10T13:19:41.720Z,21.00
2018-08-10T13:22:09.157Z,21.00
2018-08-10T13:24:36.567Z,21.00
2018-08-10T13:27:04.026Z,21.10
2018-08-10T13:29:31.417Z,20.90
2018-08-10T13:31:58.821Z,20.70
2018-08-10T13:34:26.225Z,20.90
2018-08-10T13:36:53.616Z,21.20
2018-08-10T13:39:21.012Z,21.00
2018-08-10T13:41:48.412Z,20.90
2018-08-10T13:44:15.832Z,20.70
2018-08-10T13:46:43.248Z,20.90
2018-08-10T13:49:10.667Z,20.20
2018-08-10T13:51:38.220Z,20.00
2018-08-10T13:54:05.661Z,20.10
2018-08-10T13:56:33.436Z,20.50
2018-08-10T13:59:00.839Z,20.60
2018-08-10T14:01:28.280Z,20.70
2018-08-10T14:03:55.736Z,20.50
2018-08-10T14:06:23.201Z,20.40
2018-08-10T14:08:50.637Z,19.90
2018-08-10T14:11:18.081Z,19.70
2018-08-10T14:13:45.508Z,19.70
2018-08-10T14:16:12.933Z,20.10
2018-08-10T14:18:40.333Z,20.40
2018-08-10T14:21:07.726Z,20.30
2018-08-10T14:23:35.180Z,20.20
2018-08-10T14:26:02.649Z,20.20
2018-08-10T14:28:30.108Z,20.40
2018-08-10T14:30:57.612Z,20.70
2018-08-10T14:33:25.056Z,20.80
2018-08-10T14:35:52.497Z,20.80
2018-08-10T14:38:19.965Z,20.30
2018-08-10T14:40:47.397Z,20.30
2018-08-10T14:43:14.852Z,20.20
2018-08-10T14:45:42.310Z,20.00
2018-08-10T14:48:09.714Z,19.80
2018-08-10T14:50:37.197Z,19.60
2018-08-10T14:53:04.593Z,19.50
2018-08-10T14:55:31.997Z,19.30
2018-08-10T14:57:59.413Z,19.30
2018-08-10T15:00:26.842Z,19.50
2018-08-10T15:02:54.314Z,19.50
2018-08-10T15:05:21.721Z,19.50
2018-08-10T15:07:49.142Z,19.70
2018-08-10T15:10:17.933Z,19.70
2018-08-10T15:12:46.193Z,19.80
2018-08-10T15:15:15.312Z,19.40
2018-08-10T15:17:43.097Z,19.20
2018-08-10T15:20:13.057Z,19.40
2018-08-10T15:22:40.731Z,19.50
2018-08-10T15:25:09.226Z,19.40
2018-08-10T15:27:36.753Z,19.00
2018-08-10T15:30:04.921Z,18.80
2018-08-10T15:32:32.346Z,18.90
2018-08-10T15:34:59.741Z,19.10
2018-08-10T15:37:27.152Z,19.30
2018-08-10T15:39:54.535Z,19.20
2018-08-10T15:42:22.006Z,19.20
2018-08-10T15:44:49.452Z,19.20
2018-08-10T15:47:16.828Z,19.30
2018-08-10T15:49:44.235Z,19.30
2018-08-10T15:52:11.652Z,19.30
2018-08-10T15:54:39.104Z,19.50
2018-08-10T15:57:06.492Z,19.40
2018-08-10T15:59:33.969Z,19.30
2018-08-10T16:02:01.394Z,19.30
2018-08-10T16:04:28.805Z,19.10
2018-08-10T16:06:56.217Z,19.20
2018-08-10T16:09:23.605Z,19.30
2018-08-10T16:11:51.037Z,19.10
2018-08-10T16:14:18.436Z,18.90
2018-08-10T16:16:45.877Z,18.90
2018-08-10T16:19:13.374Z,19.10
2018-08-10T16:21:40.836Z,19.20
2018-08-10T16:24:08.247Z,19.40
2018-08-10T16:26:35.672Z,19.40
2018-08-10T16:29:03.145Z,19.20
2018-08-10T16:31:30.570Z,19.30
2018-08-10T16:33:58.013Z,19.30
2018-08-10T16:36:25.408Z,19.20
2018-08-10T16:38:52.844Z,19.20
2018-08-10T16:41:20.268Z,19.30
2018-08-10T16:43:47.783Z,19.20
2018-08-10T16:46:15.210Z,18.80
2018-08-10T16:48:42.650Z,18.50
2018-08-10T16:51:10.068Z,18.20
2018-08-10T16:53:37.484Z,18.00
2018-08-10T16:56:04.941Z,17.90
2018-08-10T16:58:32.419Z,17.90
2018-08-10T17:00:59.877Z,17.90
2018-08-10T17:03:27.347Z,18.10
2018-08-10T17:05:54.753Z,18.00
2018-08-10T17:08:22.177Z,17.90
2018-08-10T17:10:49.619Z,17.90
2018-08-10T17:14:02.369Z,18.00
2018-08-10T17:16:29.803Z,18.20
2018-08-10T17:18:57.244Z,18.30
2018-08-10T17:21:24.753Z,18.30
2018-08-10T17:23:52.181Z,18.20
2018-08-10T17:26:19.625Z,18.10
2018-08-10T17:28:47.060Z,18.10
2018-08-10T17:31:14.468Z,18.00
2018-08-10T17:33:41.895Z,18.00
2018-08-10T17:36:09.282Z,18.00
2018-08-10T17:38:36.708Z,18.10
2018-08-10T17:41:04.124Z,17.90
2018-08-10T17:43:31.564Z,17.80
2018-08-10T17:45:58.980Z,17.80
2018-08-10T17:48:26.421Z,17.70
2018-08-10T17:50:54.333Z,17.60
2018-08-10T17:53:21.765Z,17.60
2018-08-10T17:55:49.264Z,17.60
2018-08-10T17:58:16.690Z,17.50
2018-08-10T18:00:44.121Z,17.50
2018-08-10T18:03:11.563Z,17.50
2018-08-10T18:05:39.009Z,17.40
2018-08-10T18:08:06.480Z,17.40
2018-08-10T18:10:33.918Z,17.20
2018-08-10T18:13:01.368Z,17.10
2018-08-10T18:15:28.779Z,16.90
2018-08-10T18:17:56.208Z,16.80
2018-08-10T18:20:23.702Z,16.80
2018-08-10T18:22:51.912Z,16.80
2018-08-10T18:25:20.410Z,16.70
2018-08-10T18:27:47.942Z,16.60
2018-08-10T18:30:18.121Z,16.50
2018-08-10T18:32:46.121Z,16.40
2018-08-10T18:35:13.554Z,16.40
2018-08-10T18:37:41.881Z,16.40
2018-08-10T18:40:10.909Z,16.40
2018-08-10T18:42:38.992Z,16.40
2018-08-10T18:45:07.388Z,16.50
2018-08-10T18:47:34.813Z,16.50
2018-08-10T18:50:02.237Z,16.40
2018-08-10T18:52:29.812Z,16.40
2018-08-10T18:54:57.264Z,16.40
2018-08-10T18:57:24.682Z,16.40
2018-08-10T18:59:52.119Z,16.20
2018-08-10T19:02:19.541Z,16.10
2018-08-10T19:04:46.981Z,15.90
2018-08-10T19:07:14.409Z,15.80
2018-08-10T19:09:41.852Z,15.60
2018-08-10T19:12:09.305Z,15.40
2018-08-10T19:14:36.729Z,15.40
2018-08-10T19:17:04.140Z,15.30
2018-08-10T19:19:31.630Z,15.10
2018-08-10T19:21:59.037Z,15.00
2018-08-10T19:24:26.448Z,15.00
2018-08-10T19:26:53.884Z,14.90
2018-08-10T19:29:21.264Z,14.90
2018-08-10T19:31:48.701Z,14.80
2018-08-10T19:34:16.085Z,14.70
2018-08-10T19:36:43.521Z,14.70
2018-08-10T19:39:11.381Z,14.80
2018-08-10T19:41:40.019Z,14.60
2018-08-10T19:44:07.946Z,14.60
2018-08-10T19:46:35.780Z,14.50
2018-08-10T19:49:03.718Z,14.50
2018-08-10T19:51:32.996Z,14.50
2018-08-10T19:54:02.471Z,14.40
2018-08-10T19:56:31.072Z,14.30
2018-08-10T19:58:59.489Z,14.30
2018-08-10T20:01:27.299Z,14.10
2018-08-10T20:03:54.829Z,14.20
2018-08-10T20:06:22.255Z,14.10
2018-08-10T20:08:49.641Z,14.10
2018-08-10T20:11:17.067Z,14.10
2018-08-10T20:13:44.532Z,13.90
2018-08-10T20:16:12.001Z,13.80
2018-08-10T20:18:39.454Z,13.60
2018-08-10T20:21:06.948Z,13.50
2018-08-10T20:23:34.381Z,13.50
2018-08-10T20:26:01.820Z,13.50
2018-08-10T20:28:29.319Z,13.40
2018-08-10T20:30:56.810Z,13.40
2018-08-10T20:33:24.238Z,13.40
2018-08-10T20:35:51.680Z,13.40
2018-08-10T20:38:19.097Z,13.40
2018-08-10T20:40:46.537Z,13.40
2018-08-10T20:43:13.999Z,13.50
2018-08-10T20:45:41.420Z,13.50
2018-08-10T20:48:08.852Z,13.40
2018-08-10T20:50:36.370Z,13.50
2018-08-10T20:53:03.737Z,13.40
2018-08-10T20:55:31.206Z,13.40
2018-08-10T20:57:59.370Z,13.30
2018-08-10T21:00:26.807Z,13.30
2018-08-10T21:02:54.196Z,13.30
2018-08-10T21:05:21.657Z,13.20
2018-08-10T21:07:49.057Z,13.10
2018-08-10T21:10:16.854Z,13.00
2018-08-10T21:12:45.132Z,13.00
2018-08-10T21:15:13.631Z,13.10
2018-08-10T21:17:42.038Z,13.10
2018-08-10T21:20:11.213Z,13.10
2018-08-10T21:22:38.648Z,13.10
2018-08-10T21:25:06.415Z,13.00
2018-08-10T21:27:33.848Z,12.90
2018-08-10T21:30:01.268Z,12.90
2018-08-10T21:32:28.709Z,12.90
2018-08-10T21:34:56.358Z,13.00
2018-08-10T21:37:23.753Z,13.00
2018-08-10T21:39:51.185Z,12.90
2018-08-10T21:42:18.772Z,12.90
2018-08-10T21:44:46.180Z,12.90
2018-08-10T21:47:13.619Z,12.90
2018-08-10T21:49:41.037Z,12.90
2018-08-10T21:52:08.599Z,12.90
2018-08-10T21:54:36.196Z,12.80
2018-08-10T21:57:03.625Z,12.80
2018-08-10T21:59:31.016Z,12.70
2018-08-10T22:01:58.523Z,12.70
2018-08-10T22:04:25.950Z,12.60
2018-08-10T22:06:53.439Z,12.60
2018-08-10T22:09:20.880Z,12.60
2018-08-10T22:11:48.284Z,12.50
2018-08-10T22:14:21.358Z,12.40
2018-08-10T22:16:54.547Z,12.40
2018-08-10T22:19:22.217Z,12.30
2018-08-10T22:21:49.758Z,12.40
2018-08-10T22:24:17.180Z,12.40
2018-08-10T22:26:44.572Z,12.40
2018-08-10T22:29:12.050Z,12.30
2018-08-10T22:31:39.773Z,12.40
2018-08-10T22:34:08.153Z,12.40
2018-08-10T22:36:35.582Z,12.40
2018-08-10T22:39:05.252Z,12.30
2018-08-10T22:41:32.712Z,12.30
2018-08-10T22:44:00.177Z,12.20
2018-08-10T22:46:27.601Z,12.10
2018-08-10T22:48:55.038Z,12.10
2018-08-10T22:51:22.427Z,12.00
2018-08-10T22:53:49.820Z,12.00
2018-08-10T22:56:17.281Z,11.90
2018-08-10T22:58:44.695Z,11.90
2018-08-10T23:01:12.172Z,12.00
2018-08-10T23:03:39.608Z,12.10
2018-08-10T23:06:07.040Z,12.30
2018-08-10T23:08:34.559Z,12.40
2018-08-10T23:11:01.988Z,12.50
2018-08-10T23:13:29.452Z,12.60
2018-08-10T23:15:57.360Z,12.70
2018-08-10T23:18:24.812Z,12.70
2018-08-10T23:20:52.309Z,12.70
2018-08-10T23:23:19.751Z,12.80
2018-08-10T23:25:47.192Z,12.70
2018-08-10T23:28:14.668Z,12.70
2018-08-10T23:30:42.098Z,12.60
2018-08-10T23:33:09.522Z,12.50
2018-08-10T23:35:36.973Z,12.40
2018-08-10T23:38:04.785Z,12.20
2018-08-10T23:40:32.212Z,12.10
2018-08-10T23:42:59.665Z,11.90
2018-08-10T23:45:27.113Z,11.80
2018-08-10T23:47:54.544Z,11.70
2018-08-10T23:50:21.973Z,11.60
2018-08-10T23:52:49.421Z,11.50
2018-08-10T23:55:17.957Z,11.50
2018-08-10T23:57:45.452Z,11.50
